Bookmark and Share
Track history (hours):
 

Queen Of Burnaby

Last reported at 2014-Apr-17 06:33 UTC. Time now 2014-Apr-17 06:43 UTC.
Position N 49°44' W 124°55'.

Length 130 m; draft 4 m.

Type: Passenger vessel. MMSI: 316001246.

NotesDate/timePositionNaut miles runAvg speedWind from/ knotsBaromVisibWave heightAir tempDewpointWater temp
2014-Apr-17 06:33N 49°44' W 124°55'0 0.0
2014-Apr-17 05:33N 49°44' W 124°55'5 5.3
2014-Apr-17 04:34N 49°47' W 124°48'1110.6
2014-Apr-17 03:32N 49°50' W 124°32'1313.7
2014-Apr-17 02:33N 49°45' W 124°51'2 2.0
2014-Apr-17 01:32N 49°45' W 124°54'1212.0
2014-Apr-17 00:33N 49°49' W 124°37'3 2.8
2014-Apr-16 23:33N 49°50' W 124°33'1413.6
2014-Apr-16 22:33N 49°45' W 124°53'2 2.0
2014-Apr-16 21:33N 49°44' W 124°55'2 1.8
2014-Apr-16 20:33N 49°46' W 124°54'9 8.0
2014-Apr-16 19:28N 49°48' W 124°41'2 2.2
2014-Apr-16 18:33N 49°49' W 124°38'4 4.1
2014-Apr-16 17:32N 49°50' W 124°32'1212.2
2014-Apr-16 16:33N 49°47' W 124°50'5 4.6
2014-Apr-16 15:33N 49°44' W 124°55'6 5.6
2014-Apr-16 14:33N 49°43' W 124°47'1716.7
2014-Apr-16 13:33N 49°30' W 124°30'1616.2
2014-Apr-16 12:33N 49°22' W 124°09'1616.5
2014-Apr-16 11:34N 49°15' W 123°46'1616.4
2014-Apr-16 10:34N 49°03' W 123°28'1212.3
2014-Apr-16 09:33N 48°51' W 123°23'3 2.6
2014-Apr-16 08:32N 48°51' W 123°27'0 0.0
2014-Apr-16 07:33N 48°51' W 123°27'0 0.0
2014-Apr-16 06:32N 48°51' W 123°27'0 0.0
2014-Apr-16 05:33N 48°51' W 123°27'6 5.9
2014-Apr-16 04:33N 48°48' W 123°19'4 3.9
2014-Apr-16 03:33N 48°52' W 123°19'10 9.6
2014-Apr-16 02:34N 48°59' W 123°09'1 1.4
2014-Apr-16 01:33N 49°00' W 123°08'1110.5
2014-Apr-16 00:33N 48°53' W 123°19'2 2.0
2014-Apr-15 23:34N 48°51' W 123°20'3 3.4
2014-Apr-15 22:33N 48°49' W 123°24'3 2.5
2014-Apr-15 21:33N 48°51' W 123°27'0 0.0
2014-Apr-15 20:33N 48°51' W 123°27'6 5.7
2014-Apr-15 19:33N 48°48' W 123°20'3 2.9
2014-Apr-15 18:33N 48°51' W 123°20'9 9.4
2014-Apr-15 17:33N 48°58' W 123°11'3 3.1
2014-Apr-15 16:33N 49°00' W 123°08'1010.5
2014-Apr-15 15:33N 48°53' W 123°18'2 2.0
2014-Apr-15 14:32N 48°51' W 123°20'3 1.7
2014-Apr-15 12:34N 48°49' W 123°24'3 3.1
2014-Apr-15 11:34N 48°51' W 123°27'0 0.0
2014-Apr-15 10:29N 48°51' W 123°27'0 0.0
2014-Apr-15 08:33N 48°51' W 123°27'0 0.0
2014-Apr-15 07:33N 48°51' W 123°27'0 0.0
2014-Apr-15 06:31N 48°51' W 123°27'6 2.0
2014-Apr-15 03:33N 48°48' W 123°19'4 3.9
2014-Apr-15 02:34N 48°52' W 123°18'10 9.6
2014-Apr-15 01:34N 48°59' W 123°09'1 1.4
2014-Apr-15 00:34N 49°00' W 123°08'1110.7
2014-Apr-14 23:34N 48°53' W 123°19'2 1.9
2014-Apr-14 22:34N 48°51' W 123°20'4 3.7
2014-Apr-14 21:34N 48°50' W 123°25'1 1.2
2014-Apr-14 20:32N 48°51' W 123°27'0 0.0
2014-Apr-14 19:34N 48°51' W 123°27'6 6.1
2014-Apr-14 18:34N 48°48' W 123°19'4 4.1
2014-Apr-14 17:34N 48°52' W 123°19'10 9.7
2014-Apr-14 16:34N 48°60' W 123°09'1 1.4
2014-Apr-14 15:34N 49°00' W 123°08'1010.4
2014-Apr-14 14:34N 48°53' W 123°18'2 2.1
2014-Apr-14 13:34N 48°51' W 123°20'5 2.4
2014-Apr-14 11:33N 48°51' W 123°27'0 0.0
2014-Apr-14 10:31N 48°51' W 123°27'0 0.0
2014-Apr-14 09:34N 48°51' W 123°27'0 0.0
2014-Apr-14 08:34N 48°51' W 123°27'0 0.0
2014-Apr-14 07:32N 48°51' W 123°27'0 0.0
2014-Apr-14 06:31N 48°51' W 123°27'0 0.0
2014-Apr-14 05:33N 48°51' W 123°27'0 0.0
2014-Apr-13 22:33N 48°51' W 123°27'0 0.0
2014-Apr-13 21:33N 48°51' W 123°27'6 5.7
2014-Apr-13 20:33N 48°48' W 123°20'3 3.1
2014-Apr-13 19:33N 48°51' W 123°21'7 7.5
2014-Apr-13 18:34N 48°57' W 123°13'5 5.2
2014-Apr-13 17:33N 49°00' W 123°08'1010.0
2014-Apr-13 16:34N 48°53' W 123°18'2 2.1
2014-Apr-13 15:24N 48°51' W 123°20'3 3.9
2014-Apr-13 14:33N 48°49' W 123°24'3 3.2
2014-Apr-13 13:33N 48°51' W 123°27'0 0.0
2014-Apr-13 12:33N 48°51' W 123°27'0 0.0
2014-Apr-13 11:31N 48°51' W 123°27'0 0.0
2014-Apr-13 10:32N 48°51' W 123°27'0 0.0
2014-Apr-13 09:33N 48°51' W 123°27'0 0.0
2014-Apr-13 08:33N 48°51' W 123°27'0 0.0
2014-Apr-13 07:30N 48°51' W 123°27'0 0.0
2014-Apr-13 06:18N 48°51' W 123°27'3 4.2
2014-Apr-13 05:33N 48°51' W 123°22'3 2.9
2014-Apr-13 04:33N 48°53' W 123°18'1010.4
2014-Apr-13 03:34N 49°00' W 123°08'0 0.0
2014-Apr-13 02:34N 49°00' W 123°08'0 0.0
2014-Apr-13 01:33N 49°00' W 123°08'1110.7
2014-Apr-13 00:33N 48°53' W 123°19'4 4.1
2014-Apr-12 23:33N 48°49' W 123°20'5 5.0
2014-Apr-12 22:33N 48°51' W 123°27'0 0.0
2014-Apr-12 21:33N 48°51' W 123°27'0 0.1
2014-Apr-12 20:33N 48°51' W 123°27'1211.8
2014-Apr-12 19:33N 48°58' W 123°12'1 1.4
2014-Apr-12 18:34N 48°58' W 123°10'10 9.8
2014-Apr-12 17:33N 48°51' W 123°20'2 1.9
2014-Apr-12 16:33N 48°53' W 123°19'1110.7
2014-Apr-12 15:34N 49°00' W 123°08'5 4.5
2014-Apr-12 14:33N 48°56' W 123°11'1111.4
2014-Apr-12 13:33N 48°51' W 123°27'0 0.1
2014-Apr-12 12:33N 48°51' W 123°27'0 0.0
2014-Apr-12 11:33N 48°51' W 123°27'0 0.0
2014-Apr-12 10:26N 48°51' W 123°27'0 0.0
2014-Apr-12 09:31N 48°51' W 123°27'0 0.0
2014-Apr-12 08:31N 48°51' W 123°27'0 0.0
2014-Apr-12 07:29N 48°51' W 123°27'1 1.5
2014-Apr-12 06:33N 48°50' W 123°25'1413.6
2014-Apr-12 05:33N 48°59' W 123°09'6 6.5
2014-Apr-12 04:34N 48°54' W 123°15'7 6.6
2014-Apr-12 03:33N 48°48' W 123°19'5 4.6
2014-Apr-12 02:34N 48°53' W 123°19'1110.7
2014-Apr-12 01:33N 49°00' W 123°08'2 2.3
2014-Apr-12 00:33N 48°58' W 123°09'1313.1
2014-Apr-11 23:32N 48°51' W 123°26'1 0.5
2014-Apr-11 22:33N 48°51' W 123°27'0 0.0
2014-Apr-11 21:33N 48°51' W 123°27'0 0.0
2014-Apr-11 20:33N 48°51' W 123°27'6 6.0
2014-Apr-11 19:33N 48°48' W 123°19'4 3.8
2014-Apr-11 18:33N 48°52' W 123°19'9 9.0
2014-Apr-11 17:33N 48°59' W 123°11'2 2.3
2014-Apr-11 16:33N 49°00' W 123°08'1010.5
2014-Apr-11 15:33N 48°53' W 123°18'2 2.0
2014-Apr-11 14:33N 48°51' W 123°20'3 3.5
2014-Apr-11 13:33N 48°50' W 123°25'2 2.2
2014-Apr-11 12:32N 48°51' W 123°27'0 0.0
2014-Apr-11 11:33N 48°51' W 123°27'0 0.0
2014-Apr-11 10:33N 48°51' W 123°27'0 0.0
2014-Apr-11 09:33N 48°51' W 123°27'0 0.0
2014-Apr-11 08:33N 48°51' W 123°27'0 0.0
2014-Apr-11 07:33N 48°51' W 123°27'0 0.0
2014-Apr-11 06:33N 48°51' W 123°27'0 0.0
2014-Apr-11 05:33N 48°51' W 123°27'6 5.9
2014-Apr-11 04:32N 48°48' W 123°19'5 4.8
2014-Apr-11 03:34N 48°53' W 123°19'9 9.4
2014-Apr-11 02:33N 48°59' W 123°09'1 1.3
2014-Apr-11 01:33N 49°00' W 123°08'1110.7
2014-Apr-11 00:33N 48°53' W 123°19'2 2.0
2014-Apr-10 23:33N 48°51' W 123°20'4 4.3
2014-Apr-10 22:32N 48°51' W 123°27'0 0.0
2014-Apr-10 21:32N 48°51' W 123°27'0 0.0
2014-Apr-10 20:34N 48°51' W 123°27'6 6.0
2014-Apr-10 19:33N 48°48' W 123°19'4 3.7
2014-Apr-10 18:33N 48°52' W 123°20'9 9.2
2014-Apr-10 17:33N 48°58' W 123°10'3 2.8
2014-Apr-10 16:33N 49°00' W 123°08'1110.7
2014-Apr-10 15:33N 48°53' W 123°19'2 1.9
2014-Apr-10 14:33N 48°51' W 123°20'3 3.4
2014-Apr-10 13:33N 48°49' W 123°24'2 1.9
2014-Apr-10 12:16N 48°51' W 123°27'0 0.0
2014-Apr-10 11:33N 48°51' W 123°27'0 0.0
2014-Apr-10 10:33N 48°51' W 123°27'0 0.0
2014-Apr-10 09:31N 48°51' W 123°27'0 0.0
2014-Apr-10 06:14N 48°51' W 123°27'0 0.0
2014-Apr-10 05:33N 48°51' W 123°27'6 5.8
2014-Apr-10 04:30N 48°48' W 123°19'5 4.8
2014-Apr-10 03:33N 48°53' W 123°18'9 8.9
2014-Apr-10 02:33N 48°59' W 123°10'2 1.7
2014-Apr-10 01:33N 49°00' W 123°08'1110.6
2014-Apr-10 00:33N 48°53' W 123°19'2 1.8
2014-Apr-09 23:27N 48°51' W 123°20'3 3.8
2014-Apr-09 22:33N 48°49' W 123°24'3 2.6
2014-Apr-09 21:33N 48°51' W 123°27'0 0.0
2014-Apr-09 20:33N 48°51' W 123°27'6 6.0
2014-Apr-09 19:33N 48°48' W 123°19'4 3.6
2014-Apr-09 18:33N 48°52' W 123°20'8 8.4
2014-Apr-09 17:34N 48°58' W 123°12'4 3.6
2014-Apr-09 16:33N 49°00' W 123°08'1010.3
2014-Apr-09 15:33N 48°53' W 123°18'2 2.2
2014-Apr-09 14:32N 48°51' W 123°20'3 3.4
2014-Apr-09 13:34N 48°49' W 123°24'2 2.4
2014-Apr-09 12:33N 48°51' W 123°27'0 0.0
2014-Apr-09 11:33N 48°51' W 123°27'0 0.0
2014-Apr-09 10:33N 48°51' W 123°27'0 0.0
2014-Apr-09 09:33N 48°51' W 123°27'0 0.0
2014-Apr-09 08:33N 48°51' W 123°27'0 0.0
2014-Apr-09 07:33N 48°51' W 123°27'0 0.0
2014-Apr-09 06:33N 48°51' W 123°27'0 0.0
2014-Apr-09 05:33N 48°51' W 123°27'6 6.0
2014-Apr-09 04:33N 48°48' W 123°19'4 3.6
2014-Apr-09 03:33N 48°52' W 123°19'9 9.1
2014-Apr-09 02:33N 48°59' W 123°10'2 2.4
2014-Apr-09 01:33N 49°00' W 123°08'1110.7
2014-Apr-09 00:33N 48°53' W 123°19'2 1.9
2014-Apr-08 23:33N 48°51' W 123°20'4 3.6
2014-Apr-08 22:33N 48°49' W 123°24'2 2.4
2014-Apr-08 21:33N 48°51' W 123°27'0 0.0
2014-Apr-08 20:33N 48°51' W 123°27'6 5.8
2014-Apr-08 19:32N 48°48' W 123°19'3 3.3
2014-Apr-08 18:33N 48°51' W 123°21'8 8.3
2014-Apr-08 17:34N 48°58' W 123°13'4 4.5
2014-Apr-08 16:33N 49°00' W 123°08'10 9.6
2014-Apr-08 15:34N 48°53' W 123°18'3 2.9
2014-Apr-08 14:33N 48°51' W 123°20'4 3.6
2014-Apr-08 13:33N 48°49' W 123°25'2 2.4
2014-Apr-08 12:33N 48°51' W 123°27'0 0.0
2014-Apr-08 11:33N 48°51' W 123°27'0 0.0
2014-Apr-08 10:32N 48°51' W 123°27'0 0.0
2014-Apr-08 09:29N 48°51' W 123°27'0 0.0
2014-Apr-08 08:32N 48°51' W 123°27'0 0.0
2014-Apr-08 07:30N 48°51' W 123°27'0 0.0
2014-Apr-08 06:33N 48°51' W 123°27'0 0.0
2014-Apr-08 05:32N 48°51' W 123°27'6 6.2
2014-Apr-08 04:33N 48°48' W 123°19'4 3.5
2014-Apr-08 03:33N 48°52' W 123°19'8 8.2
2014-Apr-08 02:33N 48°58' W 123°11'3 3.3
2014-Apr-08 01:33N 49°00' W 123°08'1110.7
2014-Apr-08 00:33N 48°53' W 123°19'2 1.9
2014-Apr-07 23:32N 48°51' W 123°20'3 3.4
2014-Apr-07 22:33N 48°49' W 123°23'3 3.4
2014-Apr-07 21:33N 48°51' W 123°27'0 0.0
2014-Apr-07 20:33N 48°51' W 123°27'6 6.1
2014-Apr-07 19:33N 48°48' W 123°19'11 5.4
2014-Apr-07 17:34N 48°58' W 123°13'4 4.2
2014-Apr-07 16:33N 49°00' W 123°08'10 9.6
2014-Apr-07 15:33N 48°53' W 123°17'3 2.8
2014-Apr-07 14:33N 48°51' W 123°20'4 3.5
2014-Apr-07 13:33N 48°49' W 123°24'3 2.7
2014-Apr-07 12:31N 48°51' W 123°27'0 0.0
2014-Apr-07 11:23N 48°51' W 123°27'0 0.0
2014-Apr-07 10:31N 48°51' W 123°27'0 0.0
2014-Apr-07 09:32N 48°51' W 123°27'0 0.0
2014-Apr-07 08:20N 48°51' W 123°27'0 0.0
2014-Apr-07 07:29N 48°51' W 123°27'0 0.0
2014-Apr-07 06:33N 48°51' W 123°27'  

Dump ship's entire track history

sailing weather and tide predictions

Queen Of Burnaby — VCVV — position and weather